Highgate, VT

4:14 AM EST on December 06, 2016 (GMT -0500)
Franklin County State | | Change Station

Elev 226 ft 44.94 °N, 73.10 °W | Updated 19 minutes ago

Overcast
Overcast
28 °F
Feels Like 28 °F
N
0
Wind Variable Wind from North

Today
High -- | Low -- °F
--% Chance of Precip.
Yesterday
High -- | Low -- °F
Precip. -- in
Pressure 30.11 in
Visibility 7.0 miles
Clouds Overcast 2100 ft
Dew Point 26 °F
Humidity 96%
Rainfall 0.00 in
Snow Depth Not available.
7:16 AM 4:11 PM
Waxing Crescent, 40% visible
METAR KFSO 060855Z AUTO 00000KT 7SM OVC021 M02/M03 A3011 RMK AO2 T10251031
Pressure 30.11 in
Visibility 7.0 miles
Clouds Overcast 2100 ft
Dew Point 26 °F
Humidity 96%
Rainfall 0.00 in
Snow Depth Not available.
7:16 AM 4:11 PM
Waxing Crescent, 40% visible
METAR KFSO 060855Z AUTO 00000KT 7SM OVC021 M02/M03 A3011 RMK AO2 T10251031

10-Day Weather Forecast

Almanac

Astronomy

Dec. 06, 2016 Rise Set
Actual Time
Civil Twilight
Nautical Twilight
Astronomical Twilight
Moon
Length of Visible Light
Length of Day
Tomorrow will be .
, % of the Moon is Illuminated

Today's Extremes

State Highs State Lows

Community

WunderPhotos

Upload Photos

1,955,935 photos uploaded!

WunderBlog® & News

Nearby

Air Quality

  Air Quality AQ Index Pollutant
Not available.

Snow Depth

Station Depth Elevation

Earthquake Activity

City Distance Mag. Time & Date
Minimum magnitude displayed is 2.5.

Coastal Water Temperatures

Place Temperature

Stations

Nearby Weather Stations

Station Location Temp. Windchill Dew Point Humidity Wind Precip. Elev Updated Type
                   

Watches & Warnings

There are currently no watches in effect.